Time,TemperatureF,DewpointF,PressureIn,WindDirection,WindDirectionDegrees,WindSpeedMPH,WindSpeedGustMPH,Humidity,HourlyPrecipIn,Conditions,Clouds,dailyrainin,SolarRadiationWatts/m^2,SoftwareType,DateUTC
2013-02-26 00:01:00,20.0,14.0,-100.00,NW,318,3.0,6.0,76,0.00,,,0.00,0.000000,,2013-02-26 09:01:00,
2013-02-26 00:52:00,21.0,14.0,-100.00,NW,319,3.0,7.0,73,0.00,,,0.00,0.000000,,2013-02-26 09:52:00,
2013-02-26 01:01:00,21.0,14.0,-100.00,NW,319,3.0,7.0,73,0.00,,,0.00,0.000000,,2013-02-26 10:01:00,
2013-02-26 01:52:00,20.0,15.0,-100.00,NW,310,4.0,6.0,81,0.00,,,0.00,0.000000,,2013-02-26 10:52:00,
2013-02-26 02:01:00,20.0,15.0,-100.00,NW,310,4.0,6.0,81,0.00,,,0.00,0.000000,,2013-02-26 11:01:00,
2013-02-26 02:52:00,20.0,15.0,-100.00,NW,310,5.0,8.0,79,0.00,,,0.00,0.000000,,2013-02-26 11:52:00,
2013-02-26 03:01:00,20.0,15.0,-100.00,NW,310,5.0,8.0,79,0.00,,,0.00,0.000000,,2013-02-26 12:01:00,
2013-02-26 03:53:00,20.0,11.0,-100.00,NNW,336,2.0,6.0,66,0.00,,,-99.99,0.000000,,2013-02-26 12:53:00,
2013-02-26 04:01:00,20.0,11.0,-100.00,NNW,336,2.0,6.0,66,0.00,,,-99.99,0.000000,,2013-02-26 13:01:00,
2013-02-26 04:52:00,20.0,10.0,-100.00,WNW,290,2.0,4.0,64,0.00,,,0.00,0.000000,,2013-02-26 13:52:00,
2013-02-26 05:01:00,20.0,10.0,-100.00,WNW,290,2.0,4.0,64,0.00,,,0.00,0.000000,,2013-02-26 14:01:00,
2013-02-26 05:52:00,20.0,9.0,-100.00,NNW,337,1.0,5.0,61,0.00,,,0.00,0.000000,,2013-02-26 14:52:00,
2013-02-26 06:02:00,20.0,9.0,-100.00,NNW,337,1.0,5.0,61,0.00,,,0.00,0.000000,,2013-02-26 15:02:00,
2013-02-26 06:31:00,20.0,9.0,-100.00,NNW,337,1.0,5.0,61,0.00,,,0.00,0.000000,,2013-02-26 15:31:00,
2013-02-26 06:52:00,20.0,11.0,-100.00,WNW,298,4.0,8.0,68,0.00,,,0.00,0.000000,,2013-02-26 15:52:00,
2013-02-26 07:01:00,20.0,11.0,-100.00,WNW,298,4.0,8.0,68,0.00,,,0.00,0.000000,,2013-02-26 16:01:00,
2013-02-26 07:31:00,20.0,11.0,-100.00,WNW,298,4.0,8.0,68,0.00,,,0.00,0.000000,,2013-02-26 16:31:00,
2013-02-26 07:52:00,20.0,10.0,-100.00,NNW,331,3.0,7.0,64,0.00,,,0.00,0.000000,,2013-02-26 16:52:00,
2013-02-26 08:01:00,20.0,10.0,-100.00,NNW,331,3.0,7.0,64,0.00,,,0.00,0.000000,,2013-02-26 17:01:00,
2013-02-26 08:32:00,20.0,10.0,-100.00,NNW,331,3.0,7.0,64,0.00,,,0.00,0.000000,,2013-02-26 17:32:00,
2013-02-26 08:52:00,18.0,8.0,-100.00,NNW,331,2.0,7.0,64,0.00,,,0.00,12.000000,,2013-02-26 17:52:00,
2013-02-26 09:01:00,18.0,8.0,-100.00,NNW,331,2.0,7.0,64,0.00,,,0.00,12.000000,,2013-02-26 18:01:00,
2013-02-26 09:12:00,18.0,8.0,-100.00,NNW,331,2.0,7.0,64,0.00,,,0.00,12.000000,,2013-02-26 18:12:00,
2013-02-26 09:21:00,18.0,8.0,-100.00,NNW,331,2.0,7.0,64,0.00,,,0.00,12.000000,,2013-02-26 18:21:00,
2013-02-26 09:31:00,18.0,8.0,-100.00,NNW,331,2.0,7.0,64,0.00,,,0.00,12.000000,,2013-02-26 18:31:00,
2013-02-26 09:52:00,19.0,12.0,-100.00,WNW,293,6.0,9.0,75,0.00,,,0.00,59.000000,,2013-02-26 18:52:00,
2013-02-26 10:01:00,19.0,12.0,-100.00,WNW,293,6.0,9.0,75,0.00,,,0.00,59.000000,,2013-02-26 19:01:00,
2013-02-26 10:11:00,19.0,12.0,-100.00,WNW,293,6.0,9.0,75,0.00,,,0.00,59.000000,,2013-02-26 19:11:00,
2013-02-26 10:22:00,19.0,12.0,-100.00,WNW,293,6.0,9.0,75,0.00,,,0.00,59.000000,,2013-02-26 19:22:00,
2013-02-26 10:31:00,19.0,12.0,-100.00,WNW,293,6.0,9.0,75,0.00,,,0.00,59.000000,,2013-02-26 19:31:00,
2013-02-26 10:52:00,20.0,11.0,-100.00,NW,323,6.0,9.0,68,0.00,,,0.00,187.000000,,2013-02-26 19:52:00,
2013-02-26 11:01:00,20.0,11.0,-100.00,NW,323,6.0,9.0,68,0.00,,,0.00,187.000000,,2013-02-26 20:01:00,
2013-02-26 11:11:00,20.0,11.0,-100.00,NW,323,6.0,9.0,68,0.00,,,0.00,187.000000,,2013-02-26 20:11:00,
2013-02-26 11:21:00,20.0,11.0,-100.00,NW,323,6.0,9.0,68,0.00,,,0.00,187.000000,,2013-02-26 20:21:00,
2013-02-26 11:31:00,20.0,11.0,-100.00,NW,323,6.0,9.0,68,0.00,,,0.00,187.000000,,2013-02-26 20:31:00,
2013-02-26 12:51:00,19.0,7.0,-100.00,NW,326,6.0,11.0,60,-99.99,,,0.00,254.000000,,2013-02-26 21:51:00,
2013-02-26 13:01:00,19.0,7.0,-100.00,NW,326,6.0,11.0,60,-99.99,,,0.00,254.000000,,2013-02-26 22:01:00,
2013-02-26 13:11:00,19.0,7.0,-100.00,NW,326,6.0,11.0,60,-99.99,,,0.00,254.000000,,2013-02-26 22:11:00,
2013-02-26 13:21:00,19.0,7.0,-100.00,NW,326,6.0,11.0,60,-99.99,,,0.00,254.000000,,2013-02-26 22:21:00,
2013-02-26 13:31:00,19.0,7.0,-100.00,NW,326,6.0,11.0,60,-99.99,,,0.00,254.000000,,2013-02-26 22:31:00,
2013-02-26 13:52:00,22.0,11.0,-100.00,NNW,329,4.0,12.0,63,0.00,,,0.00,428.000000,,2013-02-26 22:52:00,
2013-02-26 14:01:00,22.0,11.0,-100.00,NNW,329,4.0,12.0,63,0.00,,,0.00,428.000000,,2013-02-26 23:01:00,
2013-02-26 14:11:00,22.0,11.0,-100.00,NNW,329,4.0,12.0,63,0.00,,,0.00,428.000000,,2013-02-26 23:11:00,
2013-02-26 14:21:00,22.0,11.0,-100.00,NNW,329,4.0,12.0,63,0.00,,,0.00,428.000000,,2013-02-26 23:21:00,
2013-02-26 14:31:00,22.0,11.0,-100.00,NNW,329,4.0,12.0,63,0.00,,,0.00,428.000000,,2013-02-26 23:31:00,
2013-02-26 14:52:00,21.0,9.0,-100.00,WNW,302,3.0,5.0,59,0.00,,,0.00,335.000000,,2013-02-26 23:52:00,
2013-02-26 15:01:00,21.0,9.0,-100.00,WNW,302,3.0,5.0,59,0.00,,,0.00,335.000000,,2013-02-27 00:01:00,
2013-02-26 15:11:00,21.0,9.0,-100.00,WNW,302,3.0,5.0,59,0.00,,,0.00,335.000000,,2013-02-27 00:11:00,
2013-02-26 15:21:00,21.0,9.0,-100.00,WNW,302,3.0,5.0,59,0.00,,,0.00,335.000000,,2013-02-27 00:21:00,
2013-02-26 15:31:00,21.0,9.0,-100.00,WNW,302,3.0,5.0,59,0.00,,,0.00,335.000000,,2013-02-27 00:31:00,
2013-02-26 15:52:00,23.0,9.0,-100.00,NNW,329,3.0,6.0,55,0.00,,,-99.99,235.000000,,2013-02-27 00:52:00,
2013-02-26 16:01:00,23.0,9.0,-100.00,NNW,329,3.0,6.0,55,0.00,,,-99.99,235.000000,,2013-02-27 01:01:00,
2013-02-26 16:11:00,23.0,9.0,-100.00,NNW,329,3.0,6.0,55,0.00,,,-99.99,235.000000,,2013-02-27 01:11:00,
2013-02-26 16:21:00,23.0,9.0,-100.00,NNW,329,3.0,6.0,55,0.00,,,-99.99,235.000000,,2013-02-27 01:21:00,
2013-02-26 16:31:00,23.0,9.0,-100.00,NNW,329,3.0,6.0,55,0.00,,,-99.99,235.000000,,2013-02-27 01:31:00,
2013-02-26 16:52:00,19.0,6.0,-100.00,NW,316,4.0,11.0,56,0.00,,,-99.99,118.000000,,2013-02-27 01:52:00,
2013-02-26 17:01:00,19.0,6.0,-100.00,NW,316,4.0,11.0,56,0.00,,,-99.99,118.000000,,2013-02-27 02:01:00,
2013-02-26 17:13:00,19.0,6.0,-100.00,NW,316,4.0,11.0,56,0.00,,,-99.99,118.000000,,2013-02-27 02:13:00,
2013-02-26 17:22:00,19.0,6.0,-100.00,NW,316,4.0,11.0,56,0.00,,,-99.99,118.000000,,2013-02-27 02:22:00,
2013-02-26 17:31:00,19.0,6.0,-100.00,NW,316,4.0,11.0,56,0.00,,,-99.99,118.000000,,2013-02-27 02:31:00,
2013-02-26 17:52:00,18.0,6.0,-100.00,NNW,336,4.0,7.0,60,0.00,,,0.00,22.000000,,2013-02-27 02:52:00,
2013-02-26 18:01:00,18.0,6.0,-100.00,NNW,336,4.0,7.0,60,0.00,,,0.00,22.000000,,2013-02-27 03:01:00,
2013-02-26 18:11:00,18.0,6.0,-100.00,NNW,336,4.0,7.0,60,0.00,,,0.00,22.000000,,2013-02-27 03:11:00,
2013-02-26 18:21:00,18.0,6.0,-100.00,NNW,336,4.0,7.0,60,0.00,,,0.00,22.000000,,2013-02-27 03:21:00,
2013-02-26 18:31:00,18.0,6.0,-100.00,NNW,336,4.0,7.0,60,0.00,,,0.00,22.000000,,2013-02-27 03:31:00,
2013-02-26 18:52:00,21.0,10.0,-100.00,WNW,282,5.0,10.0,63,0.00,,,0.00,0.000000,,2013-02-27 03:52:00,
2013-02-26 19:01:00,21.0,10.0,-100.00,WNW,282,5.0,10.0,63,0.00,,,0.00,0.000000,,2013-02-27 04:01:00,
2013-02-26 19:31:00,21.0,10.0,-100.00,WNW,282,5.0,10.0,63,0.00,,,0.00,0.000000,,2013-02-27 04:31:00,
2013-02-26 19:52:00,20.0,6.0,-100.00,NW,314,6.0,10.0,55,0.00,,,0.00,0.000000,,2013-02-27 04:52:00,
2013-02-26 20:01:00,20.0,6.0,-100.00,NW,314,6.0,10.0,55,0.00,,,0.00,0.000000,,2013-02-27 05:01:00,
2013-02-26 20:11:00,20.0,6.0,-100.00,NW,314,6.0,10.0,55,0.00,,,0.00,0.000000,,2013-02-27 05:11:00,
2013-02-26 20:22:00,20.0,6.0,-100.00,NW,314,6.0,10.0,55,0.00,,,0.00,0.000000,,2013-02-27 05:22:00,
2013-02-26 20:32:00,20.0,6.0,-100.00,NW,314,6.0,10.0,55,0.00,,,0.00,0.000000,,2013-02-27 05:32:00,
2013-02-26 20:52:00,18.0,5.0,-100.00,NW,317,3.0,7.0,57,0.00,,,-99.99,0.000000,,2013-02-27 05:52:00,
2013-02-26 21:02:00,18.0,5.0,-100.00,NW,317,3.0,7.0,57,0.00,,,-99.99,0.000000,,2013-02-27 06:02:00,
2013-02-26 21:11:00,18.0,5.0,-100.00,NW,317,3.0,7.0,57,0.00,,,-99.99,0.000000,,2013-02-27 06:11:00,
2013-02-26 21:21:00,18.0,5.0,-100.00,NW,317,3.0,7.0,57,0.00,,,-99.99,0.000000,,2013-02-27 06:21:00,
2013-02-26 21:32:00,18.0,5.0,-100.00,NW,317,3.0,7.0,57,0.00,,,-99.99,0.000000,,2013-02-27 06:32:00,
2013-02-26 21:52:00,16.0,5.0,-100.00,NW,309,4.0,7.0,60,0.00,,,0.00,0.000000,,2013-02-27 06:52:00,
2013-02-26 22:01:00,16.0,5.0,-100.00,NW,309,4.0,7.0,60,0.00,,,0.00,0.000000,,2013-02-27 07:01:00,
2013-02-26 22:12:00,16.0,5.0,-100.00,NW,309,4.0,7.0,60,0.00,,,0.00,0.000000,,2013-02-27 07:12:00,
2013-02-26 22:21:00,16.0,5.0,-100.00,NW,309,4.0,7.0,60,0.00,,,0.00,0.000000,,2013-02-27 07:21:00,
2013-02-26 22:31:00,16.0,5.0,-100.00,NW,309,4.0,7.0,60,0.00,,,0.00,0.000000,,2013-02-27 07:31:00,
2013-02-26 22:52:00,17.0,4.0,-100.00,NW,318,2.0,5.0,57,0.00,,,0.00,0.000000,,2013-02-27 07:52:00,
2013-02-26 23:01:00,17.0,4.0,-100.00,NW,318,2.0,5.0,57,0.00,,,0.00,0.000000,,2013-02-27 08:01:00,
2013-02-26 23:11:00,17.0,4.0,-100.00,NW,318,2.0,5.0,57,0.00,,,0.00,0.000000,,2013-02-27 08:11:00,
2013-02-26 23:21:00,17.0,4.0,-100.00,NW,318,2.0,5.0,57,0.00,,,0.00,0.000000,,2013-02-27 08:21:00,
2013-02-26 23:31:00,17.0,4.0,-100.00,NW,318,2.0,5.0,57,0.00,,,0.00,0.000000,,2013-02-27 08:31:00,
2013-02-26 23:52:00,21.0,6.0,-100.00,NNW,345,3.0,7.0,51,0.00,,,0.00,0.000000,,2013-02-27 08:52:00,